sensor_id;sensor_type;location;lat;lon;timestamp;temperature;humidity
4374;DHT22;2201;51.100;6.814;2023-03-01T00:01:30;0.20;98.20
4374;DHT22;2201;51.100;6.814;2023-03-01T00:03:58;0.20;98.20
4374;DHT22;2201;51.100;6.814;2023-03-01T00:06:27;0.10;98.20
4374;DHT22;2201;51.100;6.814;2023-03-01T00:08:54;0.10;98.20
4374;DHT22;2201;51.100;6.814;2023-03-01T00:11:22;0.10;98.20
4374;DHT22;2201;51.100;6.814;2023-03-01T00:13:51;0.10;98.20
4374;DHT22;2201;51.100;6.814;2023-03-01T00:16:21;0.10;98.20
4374;DHT22;2201;51.100;6.814;2023-03-01T00:18:49;0.10;98.20
4374;DHT22;2201;51.100;6.814;2023-03-01T00:21:17;0.00;98.20
4374;DHT22;2201;51.100;6.814;2023-03-01T00:23:46;0.00;98.20
4374;DHT22;2201;51.100;6.814;2023-03-01T00:26:14;0.00;98.20
4374;DHT22;2201;51.100;6.814;2023-03-01T00:28:42;-0.10;98.20
4374;DHT22;2201;51.100;6.814;2023-03-01T00:31:10;-0.10;98.20
4374;DHT22;2201;51.100;6.814;2023-03-01T00:33:38;-0.10;98.20
4374;DHT22;2201;51.100;6.814;2023-03-01T00:36:08;-0.10;98.20
4374;DHT22;2201;51.100;6.814;2023-03-01T00:38:35;-0.10;98.20
4374;DHT22;2201;51.100;6.814;2023-03-01T00:41:04;-0.10;98.20
4374;DHT22;2201;51.100;6.814;2023-03-01T00:43:31;-0.10;98.20
4374;DHT22;2201;51.100;6.814;2023-03-01T00:46:02;-0.10;98.20
4374;DHT22;2201;51.100;6.814;2023-03-01T00:48:29;-0.10;98.20
4374;DHT22;2201;51.100;6.814;2023-03-01T00:50:56;-0.20;98.20
4374;DHT22;2201;51.100;6.814;2023-03-01T00:53:24;-0.20;98.20
4374;DHT22;2201;51.100;6.814;2023-03-01T00:55:51;-0.20;98.20
4374;DHT22;2201;51.100;6.814;2023-03-01T00:58:18;-0.20;98.20
4374;DHT22;2201;51.100;6.814;2023-03-01T01:00:44;-0.20;98.20
4374;DHT22;2201;51.100;6.814;2023-03-01T01:03:11;-0.20;98.20
4374;DHT22;2201;51.100;6.814;2023-03-01T01:05:38;-0.20;98.20
4374;DHT22;2201;51.100;6.814;2023-03-01T01:08:05;-0.20;98.20
4374;DHT22;2201;51.100;6.814;2023-03-01T01:10:34;-0.30;98.20
4374;DHT22;2201;51.100;6.814;2023-03-01T01:13:01;-0.30;98.20
4374;DHT22;2201;51.100;6.814;2023-03-01T01:15:28;-0.30;98.20
4374;DHT22;2201;51.100;6.814;2023-03-01T01:17:55;-0.30;98.20
4374;DHT22;2201;51.100;6.814;2023-03-01T01:20:22;-0.40;98.20
4374;DHT22;2201;51.100;6.814;2023-03-01T01:22:49;-0.40;98.20
4374;DHT22;2201;51.100;6.814;2023-03-01T01:25:16;-0.40;98.20
4374;DHT22;2201;51.100;6.814;2023-03-01T01:27:44;-0.40;98.20
4374;DHT22;2201;51.100;6.814;2023-03-01T01:30:12;-0.50;98.20
4374;DHT22;2201;51.100;6.814;2023-03-01T01:32:39;-0.50;98.20
4374;DHT22;2201;51.100;6.814;2023-03-01T01:35:07;-0.50;98.20
4374;DHT22;2201;51.100;6.814;2023-03-01T01:37:34;-0.50;98.20
4374;DHT22;2201;51.100;6.814;2023-03-01T01:40:02;-0.50;98.20
4374;DHT22;2201;51.100;6.814;2023-03-01T01:42:30;-0.50;98.20
4374;DHT22;2201;51.100;6.814;2023-03-01T01:45:29;-0.60;98.20
4374;DHT22;2201;51.100;6.814;2023-03-01T01:47:59;-0.60;98.20
4374;DHT22;2201;51.100;6.814;2023-03-01T01:50:27;-0.60;98.20
4374;DHT22;2201;51.100;6.814;2023-03-01T01:53:05;-0.60;98.20
4374;DHT22;2201;51.100;6.814;2023-03-01T01:55:33;-0.60;98.20
4374;DHT22;2201;51.100;6.814;2023-03-01T01:58:03;-0.60;98.20
4374;DHT22;2201;51.100;6.814;2023-03-01T02:00:32;-0.60;98.20
4374;DHT22;2201;51.100;6.814;2023-03-01T02:03:01;-0.60;98.20
4374;DHT22;2201;51.100;6.814;2023-03-01T02:05:35;-0.60;98.20
4374;DHT22;2201;51.100;6.814;2023-03-01T02:08:04;-0.60;98.20
4374;DHT22;2201;51.100;6.814;2023-03-01T02:10:33;-0.60;98.20
4374;DHT22;2201;51.100;6.814;2023-03-01T02:13:01;-0.60;98.20
4374;DHT22;2201;51.100;6.814;2023-03-01T02:15:33;-0.60;98.20
4374;DHT22;2201;51.100;6.814;2023-03-01T02:18:01;-0.70;98.20
4374;DHT22;2201;51.100;6.814;2023-03-01T02:20:34;-0.70;98.20
4374;DHT22;2201;51.100;6.814;2023-03-01T02:23:04;-0.70;98.20
4374;DHT22;2201;51.100;6.814;2023-03-01T02:25:36;-0.70;98.20
4374;DHT22;2201;51.100;6.814;2023-03-01T02:28:10;-0.70;98.20
4374;DHT22;2201;51.100;6.814;2023-03-01T02:30:40;-0.70;98.20
4374;DHT22;2201;51.100;6.814;2023-03-01T02:33:27;-0.70;98.20
4374;DHT22;2201;51.100;6.814;2023-03-01T02:35:54;-0.70;98.20
4374;DHT22;2201;51.100;6.814;2023-03-01T02:38:23;-0.70;98.20
4374;DHT22;2201;51.100;6.814;2023-03-01T02:40:51;-0.70;98.20
4374;DHT22;2201;51.100;6.814;2023-03-01T02:43:19;-0.70;98.20
4374;DHT22;2201;51.100;6.814;2023-03-01T02:45:50;-0.70;98.20
4374;DHT22;2201;51.100;6.814;2023-03-01T02:48:18;-0.70;98.20
4374;DHT22;2201;51.100;6.814;2023-03-01T02:51:00;-0.80;98.20
4374;DHT22;2201;51.100;6.814;2023-03-01T02:53:34;-0.80;98.20
4374;DHT22;2201;51.100;6.814;2023-03-01T02:56:01;-0.80;98.20
4374;DHT22;2201;51.100;6.814;2023-03-01T02:58:28;-0.80;98.20
4374;DHT22;2201;51.100;6.814;2023-03-01T03:00:56;-0.80;98.20
4374;DHT22;2201;51.100;6.814;2023-03-01T03:03:26;-0.80;98.20
4374;DHT22;2201;51.100;6.814;2023-03-01T03:05:53;-0.80;98.20
4374;DHT22;2201;51.100;6.814;2023-03-01T03:08:19;-0.80;98.20
4374;DHT22;2201;51.100;6.814;2023-03-01T03:10:49;-0.80;98.20
4374;DHT22;2201;51.100;6.814;2023-03-01T03:13:16;-0.90;98.20
4374;DHT22;2201;51.100;6.814;2023-03-01T03:15:43;-0.90;98.20
4374;DHT22;2201;51.100;6.814;2023-03-01T03:18:17;-0.90;98.20
4374;DHT22;2201;51.100;6.814;2023-03-01T03:20:44;-0.90;98.20
4374;DHT22;2201;51.100;6.814;2023-03-01T03:23:12;-1.00;98.20
4374;DHT22;2201;51.100;6.814;2023-03-01T03:25:39;-1.00;98.20
4374;DHT22;2201;51.100;6.814;2023-03-01T03:28:07;-1.10;98.20
4374;DHT22;2201;51.100;6.814;2023-03-01T03:30:37;-1.10;98.20
4374;DHT22;2201;51.100;6.814;2023-03-01T03:33:05;-1.10;98.20
4374;DHT22;2201;51.100;6.814;2023-03-01T03:35:38;-1.10;98.20
4374;DHT22;2201;51.100;6.814;2023-03-01T03:38:08;-1.10;98.20
4374;DHT22;2201;51.100;6.814;2023-03-01T03:40:43;-1.20;98.20
4374;DHT22;2201;51.100;6.814;2023-03-01T03:43:12;-1.20;98.20
4374;DHT22;2201;51.100;6.814;2023-03-01T03:45:39;-1.20;98.20
4374;DHT22;2201;51.100;6.814;2023-03-01T03:48:08;-1.20;98.20
4374;DHT22;2201;51.100;6.814;2023-03-01T03:50:37;-1.30;98.20
4374;DHT22;2201;51.100;6.814;2023-03-01T03:53:08;-1.30;98.20
4374;DHT22;2201;51.100;6.814;2023-03-01T03:55:36;-1.30;98.20
4374;DHT22;2201;51.100;6.814;2023-03-01T03:58:05;-1.30;98.20
4374;DHT22;2201;51.100;6.814;2023-03-01T04:00:34;-1.30;98.20
4374;DHT22;2201;51.100;6.814;2023-03-01T04:03:01;-1.40;98.20
4374;DHT22;2201;51.100;6.814;2023-03-01T04:05:29;-1.40;98.20
4374;DHT22;2201;51.100;6.814;2023-03-01T04:07:57;-1.40;98.20
4374;DHT22;2201;51.100;6.814;2023-03-01T04:10:28;-1.40;98.20
4374;DHT22;2201;51.100;6.814;2023-03-01T04:12:55;-1.40;98.20
4374;DHT22;2201;51.100;6.814;2023-03-01T04:15:23;-1.40;98.20
4374;DHT22;2201;51.100;6.814;2023-03-01T04:17:51;-1.40;98.20
4374;DHT22;2201;51.100;6.814;2023-03-01T04:20:21;-1.50;98.20
4374;DHT22;2201;51.100;6.814;2023-03-01T04:22:51;-1.50;98.20
4374;DHT22;2201;51.100;6.814;2023-03-01T04:25:19;-1.50;98.20
4374;DHT22;2201;51.100;6.814;2023-03-01T04:27:46;-1.50;98.20
4374;DHT22;2201;51.100;6.814;2023-03-01T04:30:13;-1.60;98.20
4374;DHT22;2201;51.100;6.814;2023-03-01T04:32:40;-1.60;98.20
4374;DHT22;2201;51.100;6.814;2023-03-01T04:35:07;-1.60;98.20
4374;DHT22;2201;51.100;6.814;2023-03-01T04:37:34;-1.70;98.20
4374;DHT22;2201;51.100;6.814;2023-03-01T04:40:01;-1.70;98.20
4374;DHT22;2201;51.100;6.814;2023-03-01T04:42:39;-1.70;98.20
4374;DHT22;2201;51.100;6.814;2023-03-01T04:45:06;-1.70;98.20
4374;DHT22;2201;51.100;6.814;2023-03-01T04:47:39;-1.70;98.20
4374;DHT22;2201;51.100;6.814;2023-03-01T04:50:06;-1.70;98.20
4374;DHT22;2201;51.100;6.814;2023-03-01T04:52:34;-1.70;98.20
4374;DHT22;2201;51.100;6.814;2023-03-01T04:55:01;-1.70;98.20
4374;DHT22;2201;51.100;6.814;2023-03-01T04:57:29;-1.70;98.20
4374;DHT22;2201;51.100;6.814;2023-03-01T04:59:57;-1.70;98.20
4374;DHT22;2201;51.100;6.814;2023-03-01T05:02:24;-1.70;98.20
4374;DHT22;2201;51.100;6.814;2023-03-01T05:04:50;-1.70;98.20
4374;DHT22;2201;51.100;6.814;2023-03-01T05:07:17;-1.70;98.20
4374;DHT22;2201;51.100;6.814;2023-03-01T05:09:45;-1.70;98.20
4374;DHT22;2201;51.100;6.814;2023-03-01T05:12:13;-1.70;98.20
4374;DHT22;2201;51.100;6.814;2023-03-01T05:14:40;-1.70;98.20
4374;DHT22;2201;51.100;6.814;2023-03-01T05:17:08;-1.70;98.20
4374;DHT22;2201;51.100;6.814;2023-03-01T05:19:35;-1.70;98.20
4374;DHT22;2201;51.100;6.814;2023-03-01T05:22:02;-1.70;98.20
4374;DHT22;2201;51.100;6.814;2023-03-01T05:24:30;-1.70;98.20
4374;DHT22;2201;51.100;6.814;2023-03-01T05:26:58;-1.70;98.20
4374;DHT22;2201;51.100;6.814;2023-03-01T05:29:26;-1.70;98.20
4374;DHT22;2201;51.100;6.814;2023-03-01T05:31:54;-1.70;98.20
4374;DHT22;2201;51.100;6.814;2023-03-01T05:34:24;-1.70;98.20
4374;DHT22;2201;51.100;6.814;2023-03-01T05:36:51;-1.60;98.20
4374;DHT22;2201;51.100;6.814;2023-03-01T05:39:19;-1.60;98.20
4374;DHT22;2201;51.100;6.814;2023-03-01T05:41:47;-1.60;98.20
4374;DHT22;2201;51.100;6.814;2023-03-01T05:44:14;-1.60;98.20
4374;DHT22;2201;51.100;6.814;2023-03-01T05:46:41;-1.60;98.20
4374;DHT22;2201;51.100;6.814;2023-03-01T05:49:08;-1.60;98.20
4374;DHT22;2201;51.100;6.814;2023-03-01T05:51:36;-1.60;98.20
4374;DHT22;2201;51.100;6.814;2023-03-01T05:54:03;-1.60;98.20
4374;DHT22;2201;51.100;6.814;2023-03-01T05:56:32;-1.60;98.20
4374;DHT22;2201;51.100;6.814;2023-03-01T05:58:59;-1.60;98.20
4374;DHT22;2201;51.100;6.814;2023-03-01T06:01:26;-1.60;98.20
4374;DHT22;2201;51.100;6.814;2023-03-01T06:03:53;-1.70;98.20
4374;DHT22;2201;51.100;6.814;2023-03-01T06:06:19;-1.70;98.20
4374;DHT22;2201;51.100;6.814;2023-03-01T06:08:48;-1.70;98.20
4374;DHT22;2201;51.100;6.814;2023-03-01T06:11:14;-1.70;98.20
4374;DHT22;2201;51.100;6.814;2023-03-01T06:13:41;-1.70;98.20
4374;DHT22;2201;51.100;6.814;2023-03-01T06:16:09;-1.80;98.20
4374;DHT22;2201;51.100;6.814;2023-03-01T06:18:35;-1.80;98.20
4374;DHT22;2201;51.100;6.814;2023-03-01T06:21:03;-1.80;98.20
4374;DHT22;2201;51.100;6.814;2023-03-01T06:23:30;-1.90;98.20
4374;DHT22;2201;51.100;6.814;2023-03-01T06:25:58;-1.90;98.20
4374;DHT22;2201;51.100;6.814;2023-03-01T06:28:25;-1.90;98.20
4374;DHT22;2201;51.100;6.814;2023-03-01T06:30:52;-2.00;98.20
4374;DHT22;2201;51.100;6.814;2023-03-01T06:33:19;-2.00;98.20
4374;DHT22;2201;51.100;6.814;2023-03-01T06:35:47;-2.10;98.20
4374;DHT22;2201;51.100;6.814;2023-03-01T06:38:14;-2.10;98.20
4374;DHT22;2201;51.100;6.814;2023-03-01T06:40:42;-2.10;98.20
4374;DHT22;2201;51.100;6.814;2023-03-01T06:43:11;-2.10;98.20
4374;DHT22;2201;51.100;6.814;2023-03-01T06:45:38;-2.10;98.20
4374;DHT22;2201;51.100;6.814;2023-03-01T06:48:06;-2.10;98.20
4374;DHT22;2201;51.100;6.814;2023-03-01T06:50:34;-2.10;98.20
4374;DHT22;2201;51.100;6.814;2023-03-01T06:53:01;-2.00;98.20
4374;DHT22;2201;51.100;6.814;2023-03-01T06:55:28;-2.00;98.20
4374;DHT22;2201;51.100;6.814;2023-03-01T06:57:55;-2.00;98.20
4374;DHT22;2201;51.100;6.814;2023-03-01T07:00:25;-1.90;98.20
4374;DHT22;2201;51.100;6.814;2023-03-01T07:02:52;-1.80;98.20
4374;DHT22;2201;51.100;6.814;2023-03-01T07:05:19;-1.70;98.20
4374;DHT22;2201;51.100;6.814;2023-03-01T07:07:46;-1.60;98.20
4374;DHT22;2201;51.100;6.814;2023-03-01T07:10:12;-1.40;98.20
4374;DHT22;2201;51.100;6.814;2023-03-01T07:12:39;-1.20;98.20
4374;DHT22;2201;51.100;6.814;2023-03-01T07:15:08;-1.10;98.20
4374;DHT22;2201;51.100;6.814;2023-03-01T07:17:37;-0.90;98.20
4374;DHT22;2201;51.100;6.814;2023-03-01T07:20:04;-0.70;98.20
4374;DHT22;2201;51.100;6.814;2023-03-01T07:22:31;-0.50;98.20
4374;DHT22;2201;51.100;6.814;2023-03-01T07:24:58;-0.30;98.20
4374;DHT22;2201;51.100;6.814;2023-03-01T07:27:25;-0.20;98.20
4374;DHT22;2201;51.100;6.814;2023-03-01T07:29:51;0.00;98.20
4374;DHT22;2201;51.100;6.814;2023-03-01T07:32:18;0.20;98.20
4374;DHT22;2201;51.100;6.814;2023-03-01T07:34:46;0.40;98.20
4374;DHT22;2201;51.100;6.814;2023-03-01T07:37:13;0.50;98.20
4374;DHT22;2201;51.100;6.814;2023-03-01T07:39:40;0.70;98.20
4374;DHT22;2201;51.100;6.814;2023-03-01T07:42:07;0.80;98.20
4374;DHT22;2201;51.100;6.814;2023-03-01T07:44:34;1.00;98.20
4374;DHT22;2201;51.100;6.814;2023-03-01T07:47:02;1.10;98.20
4374;DHT22;2201;51.100;6.814;2023-03-01T07:49:29;1.30;98.20
4374;DHT22;2201;51.100;6.814;2023-03-01T07:51:57;1.40;98.20
4374;DHT22;2201;51.100;6.814;2023-03-01T07:54:23;1.60;98.20
4374;DHT22;2201;51.100;6.814;2023-03-01T07:56:51;1.80;98.20
4374;DHT22;2201;51.100;6.814;2023-03-01T07:59:20;2.00;98.20
4374;DHT22;2201;51.100;6.814;2023-03-01T08:01:46;2.20;98.20
4374;DHT22;2201;51.100;6.814;2023-03-01T08:04:13;2.30;98.20
4374;DHT22;2201;51.100;6.814;2023-03-01T08:06:40;2.50;98.20
4374;DHT22;2201;51.100;6.814;2023-03-01T08:09:08;2.60;98.20
4374;DHT22;2201;51.100;6.814;2023-03-01T08:11:34;2.80;98.20
4374;DHT22;2201;51.100;6.814;2023-03-01T08:14:01;2.90;98.20
4374;DHT22;2201;51.100;6.814;2023-03-01T08:16:28;3.00;98.20
4374;DHT22;2201;51.100;6.814;2023-03-01T08:18:55;3.20;97.90
4374;DHT22;2201;51.100;6.814;2023-03-01T08:21:26;3.30;97.20
4374;DHT22;2201;51.100;6.814;2023-03-01T08:23:52;3.50;97.30
4374;DHT22;2201;51.100;6.814;2023-03-01T08:26:21;3.60;96.30
4374;DHT22;2201;51.100;6.814;2023-03-01T08:28:49;3.80;95.90
4374;DHT22;2201;51.100;6.814;2023-03-01T08:31:18;3.90;95.80
4374;DHT22;2201;51.100;6.814;2023-03-01T08:33:45;4.00;95.60
4374;DHT22;2201;51.100;6.814;2023-03-01T08:36:16;4.10;95.90
4374;DHT22;2201;51.100;6.814;2023-03-01T08:38:43;4.30;93.60
4374;DHT22;2201;51.100;6.814;2023-03-01T08:41:11;4.40;93.10
4374;DHT22;2201;51.100;6.814;2023-03-01T08:43:42;4.50;93.00
4374;DHT22;2201;51.100;6.814;2023-03-01T08:46:09;4.60;92.10
4374;DHT22;2201;51.100;6.814;2023-03-01T08:48:36;4.60;91.50
4374;DHT22;2201;51.100;6.814;2023-03-01T08:51:09;4.70;91.70
4374;DHT22;2201;51.100;6.814;2023-03-01T08:53:36;4.80;92.10
4374;DHT22;2201;51.100;6.814;2023-03-01T08:56:03;4.90;91.10
4374;DHT22;2201;51.100;6.814;2023-03-01T08:58:30;5.00;92.20
4374;DHT22;2201;51.100;6.814;2023-03-01T09:00:58;5.10;88.60
4374;DHT22;2201;51.100;6.814;2023-03-01T09:03:26;5.10;90.70
4374;DHT22;2201;51.100;6.814;2023-03-01T09:05:53;5.20;90.20
4374;DHT22;2201;51.100;6.814;2023-03-01T09:08:19;5.40;88.90
4374;DHT22;2201;51.100;6.814;2023-03-01T09:10:46;5.40;86.60
4374;DHT22;2201;51.100;6.814;2023-03-01T09:13:13;5.40;85.50
4374;DHT22;2201;51.100;6.814;2023-03-01T09:15:39;5.30;85.10
4374;DHT22;2201;51.100;6.814;2023-03-01T09:18:07;5.20;84.70
4374;DHT22;2201;51.100;6.814;2023-03-01T09:20:34;5.20;85.70
4374;DHT22;2201;51.100;6.814;2023-03-01T09:23:01;5.20;86.20
4374;DHT22;2201;51.100;6.814;2023-03-01T09:25:28;5.40;85.20
4374;DHT22;2201;51.100;6.814;2023-03-01T09:27:55;5.30;84.30
4374;DHT22;2201;51.100;6.814;2023-03-01T09:30:22;5.30;84.80
4374;DHT22;2201;51.100;6.814;2023-03-01T09:32:49;5.40;84.30
4374;DHT22;2201;51.100;6.814;2023-03-01T09:35:18;5.60;84.90
4374;DHT22;2201;51.100;6.814;2023-03-01T09:37:45;5.70;83.80
4374;DHT22;2201;51.100;6.814;2023-03-01T09:40:15;5.90;84.10
4374;DHT22;2201;51.100;6.814;2023-03-01T09:42:51;6.10;83.40
4374;DHT22;2201;51.100;6.814;2023-03-01T09:45:27;6.20;82.70
4374;DHT22;2201;51.100;6.814;2023-03-01T09:47:54;6.30;81.90
4374;DHT22;2201;51.100;6.814;2023-03-01T09:50:26;6.30;81.20
4374;DHT22;2201;51.100;6.814;2023-03-01T09:53:01;6.20;80.40
4374;DHT22;2201;51.100;6.814;2023-03-01T09:55:32;6.30;80.20
4374;DHT22;2201;51.100;6.814;2023-03-01T09:58:06;6.50;79.80
4374;DHT22;2201;51.100;6.814;2023-03-01T10:00:41;6.40;78.30
4374;DHT22;2201;51.100;6.814;2023-03-01T10:03:14;6.40;79.20
4374;DHT22;2201;51.100;6.814;2023-03-01T10:05:55;6.60;79.60
4374;DHT22;2201;51.100;6.814;2023-03-01T10:08:36;6.70;78.70
4374;DHT22;2201;51.100;6.814;2023-03-01T10:11:19;7.00;78.90
4374;DHT22;2201;51.100;6.814;2023-03-01T10:13:51;7.10;77.50
4374;DHT22;2201;51.100;6.814;2023-03-01T10:16:22;7.20;77.40
4374;DHT22;2201;51.100;6.814;2023-03-01T10:18:53;7.20;77.20
4374;DHT22;2201;51.100;6.814;2023-03-01T10:21:23;7.50;78.50
4374;DHT22;2201;51.100;6.814;2023-03-01T10:23:51;7.60;77.60
4374;DHT22;2201;51.100;6.814;2023-03-01T10:26:29;7.90;77.90
4374;DHT22;2201;51.100;6.814;2023-03-01T10:29:03;8.20;77.50
4374;DHT22;2201;51.100;6.814;2023-03-01T10:31:38;8.40;77.20
4374;DHT22;2201;51.100;6.814;2023-03-01T10:34:09;8.70;76.80
4374;DHT22;2201;51.100;6.814;2023-03-01T10:36:39;8.80;76.20
4374;DHT22;2201;51.100;6.814;2023-03-01T10:39:12;9.10;76.90
4374;DHT22;2201;51.100;6.814;2023-03-01T10:41:53;9.10;74.90
4374;DHT22;2201;51.100;6.814;2023-03-01T10:47:42;9.40;73.50
4374;DHT22;2201;51.100;6.814;2023-03-01T10:50:19;9.30;72.20
4374;DHT22;2201;51.100;6.814;2023-03-01T10:52:58;9.30;73.70
4374;DHT22;2201;51.100;6.814;2023-03-01T10:55:29;9.40;74.50
4374;DHT22;2201;51.100;6.814;2023-03-01T10:58:16;9.70;74.60
4374;DHT22;2201;51.100;6.814;2023-03-01T11:00:50;9.90;73.90
4374;DHT22;2201;51.100;6.814;2023-03-01T11:03:21;10.00;72.90
4374;DHT22;2201;51.100;6.814;2023-03-01T11:05:58;10.10;71.50
4374;DHT22;2201;51.100;6.814;2023-03-01T11:08:35;10.20;72.10
4374;DHT22;2201;51.100;6.814;2023-03-01T11:11:13;10.30;71.10
4374;DHT22;2201;51.100;6.814;2023-03-01T11:13:49;10.30;71.40
4374;DHT22;2201;51.100;6.814;2023-03-01T11:16:24;10.50;71.80
4374;DHT22;2201;51.100;6.814;2023-03-01T11:18:57;10.40;69.10
4374;DHT22;2201;51.100;6.814;2023-03-01T11:21:25;10.40;70.60
4374;DHT22;2201;51.100;6.814;2023-03-01T11:23:54;10.20;68.40
4374;DHT22;2201;51.100;6.814;2023-03-01T11:26:21;10.30;71.00
4374;DHT22;2201;51.100;6.814;2023-03-01T11:28:53;10.20;69.30
4374;DHT22;2201;51.100;6.814;2023-03-01T11:31:21;10.40;70.50
4374;DHT22;2201;51.100;6.814;2023-03-01T11:33:54;10.60;71.50
4374;DHT22;2201;51.100;6.814;2023-03-01T11:36:28;10.90;70.50
4374;DHT22;2201;51.100;6.814;2023-03-01T11:39:03;10.80;68.40
4374;DHT22;2201;51.100;6.814;2023-03-01T11:41:31;10.70;68.50
4374;DHT22;2201;51.100;6.814;2023-03-01T11:44:02;10.70;68.30
4374;DHT22;2201;51.100;6.814;2023-03-01T11:46:54;10.60;67.50
4374;DHT22;2201;51.100;6.814;2023-03-01T11:49:53;10.70;70.00
4374;DHT22;2201;51.100;6.814;2023-03-01T11:52:33;10.90;69.60
4374;DHT22;2201;51.100;6.814;2023-03-01T11:55:16;10.70;67.60
4374;DHT22;2201;51.100;6.814;2023-03-01T11:57:59;10.40;69.80
4374;DHT22;2201;51.100;6.814;2023-03-01T12:00:43;10.50;70.40
4374;DHT22;2201;51.100;6.814;2023-03-01T12:03:30;10.80;69.60
4374;DHT22;2201;51.100;6.814;2023-03-01T12:06:24;10.90;69.30
4374;DHT22;2201;51.100;6.814;2023-03-01T12:09:02;10.80;69.00
4374;DHT22;2201;51.100;6.814;2023-03-01T12:11:43;10.90;68.90
4374;DHT22;2201;51.100;6.814;2023-03-01T12:14:43;10.70;68.90
4374;DHT22;2201;51.100;6.814;2023-03-01T12:17:37;10.90;69.80
4374;DHT22;2201;51.100;6.814;2023-03-01T12:22:58;11.30;68.90
4374;DHT22;2201;51.100;6.814;2023-03-01T12:25:35;11.10;68.60
4374;DHT22;2201;51.100;6.814;2023-03-01T12:28:27;11.00;69.50
4374;DHT22;2201;51.100;6.814;2023-03-01T12:31:31;10.80;69.60
4374;DHT22;2201;51.100;6.814;2023-03-01T12:34:07;10.90;70.80
4374;DHT22;2201;51.100;6.814;2023-03-01T12:36:48;11.00;70.40
4374;DHT22;2201;51.100;6.814;2023-03-01T12:39:27;11.00;70.30
4374;DHT22;2201;51.100;6.814;2023-03-01T12:42:07;10.90;69.90
4374;DHT22;2201;51.100;6.814;2023-03-01T12:44:47;11.00;70.60
4374;DHT22;2201;51.100;6.814;2023-03-01T12:47:26;11.00;70.90
4374;DHT22;2201;51.100;6.814;2023-03-01T12:49:59;11.10;70.60
4374;DHT22;2201;51.100;6.814;2023-03-01T12:52:35;11.20;70.60
4374;DHT22;2201;51.100;6.814;2023-03-01T12:55:15;11.40;70.50
4374;DHT22;2201;51.100;6.814;2023-03-01T12:57:48;11.50;70.20
4374;DHT22;2201;51.100;6.814;2023-03-01T13:00:26;11.50;70.00
4374;DHT22;2201;51.100;6.814;2023-03-01T13:02:59;11.40;69.60
4374;DHT22;2201;51.100;6.814;2023-03-01T13:05:35;11.50;70.70
4374;DHT22;2201;51.100;6.814;2023-03-01T13:08:10;11.50;70.50
4374;DHT22;2201;51.100;6.814;2023-03-01T13:10:43;11.30;70.70
4374;DHT22;2201;51.100;6.814;2023-03-01T13:13:20;11.30;71.20
4374;DHT22;2201;51.100;6.814;2023-03-01T13:15:49;11.30;71.40
4374;DHT22;2201;51.100;6.814;2023-03-01T13:18:31;11.40;71.50
4374;DHT22;2201;51.100;6.814;2023-03-01T13:21:00;11.50;70.40
4374;DHT22;2201;51.100;6.814;2023-03-01T13:23:35;11.40;69.30
4374;DHT22;2201;51.100;6.814;2023-03-01T13:26:14;11.30;69.40
4374;DHT22;2201;51.100;6.814;2023-03-01T13:28:53;11.10;69.80
4374;DHT22;2201;51.100;6.814;2023-03-01T13:34:55;10.80;69.60
4374;DHT22;2201;51.100;6.814;2023-03-01T13:37:24;10.60;70.80
4374;DHT22;2201;51.100;6.814;2023-03-01T13:39:55;10.50;70.10
4374;DHT22;2201;51.100;6.814;2023-03-01T13:42:42;10.50;70.80
4374;DHT22;2201;51.100;6.814;2023-03-01T13:45:19;10.50;69.50
4374;DHT22;2201;51.100;6.814;2023-03-01T13:47:50;10.30;70.20
4374;DHT22;2201;51.100;6.814;2023-03-01T13:50:23;10.30;70.70
4374;DHT22;2201;51.100;6.814;2023-03-01T13:52:55;10.30;70.80
4374;DHT22;2201;51.100;6.814;2023-03-01T13:55:27;10.20;71.80
4374;DHT22;2201;51.100;6.814;2023-03-01T13:57:59;10.10;72.00
4374;DHT22;2201;51.100;6.814;2023-03-01T14:00:32;10.20;73.00
4374;DHT22;2201;51.100;6.814;2023-03-01T14:03:01;10.00;72.50
4374;DHT22;2201;51.100;6.814;2023-03-01T14:05:31;10.00;72.90
4374;DHT22;2201;51.100;6.814;2023-03-01T14:07:58;9.80;73.00
4374;DHT22;2201;51.100;6.814;2023-03-01T14:10:29;9.70;72.80
4374;DHT22;2201;51.100;6.814;2023-03-01T14:13:12;9.60;73.70
4374;DHT22;2201;51.100;6.814;2023-03-01T14:15:53;9.60;74.20
4374;DHT22;2201;51.100;6.814;2023-03-01T14:18:26;9.50;74.20
4374;DHT22;2201;51.100;6.814;2023-03-01T14:20:57;9.50;74.60
4374;DHT22;2201;51.100;6.814;2023-03-01T14:23:25;9.50;74.90
4374;DHT22;2201;51.100;6.814;2023-03-01T14:25:54;9.50;74.60
4374;DHT22;2201;51.100;6.814;2023-03-01T14:28:24;9.50;74.80
4374;DHT22;2201;51.100;6.814;2023-03-01T14:30:53;9.50;75.20
4374;DHT22;2201;51.100;6.814;2023-03-01T14:33:22;9.50;75.10
4374;DHT22;2201;51.100;6.814;2023-03-01T14:35:59;9.40;74.80
4374;DHT22;2201;51.100;6.814;2023-03-01T14:38:32;9.40;75.80
4374;DHT22;2201;51.100;6.814;2023-03-01T14:41:02;9.40;74.90
4374;DHT22;2201;51.100;6.814;2023-03-01T14:43:30;9.20;74.70
4374;DHT22;2201;51.100;6.814;2023-03-01T14:45:58;9.20;75.00
4374;DHT22;2201;51.100;6.814;2023-03-01T14:48:25;9.20;75.20
4374;DHT22;2201;51.100;6.814;2023-03-01T14:50:53;9.10;75.80
4374;DHT22;2201;51.100;6.814;2023-03-01T14:53:24;9.10;75.70
4374;DHT22;2201;51.100;6.814;2023-03-01T14:55:53;9.00;75.90
4374;DHT22;2201;51.100;6.814;2023-03-01T14:58:22;9.00;75.70
4374;DHT22;2201;51.100;6.814;2023-03-01T15:00:51;8.90;76.40
4374;DHT22;2201;51.100;6.814;2023-03-01T15:03:24;8.90;76.40
4374;DHT22;2201;51.100;6.814;2023-03-01T15:05:52;8.90;76.70
4374;DHT22;2201;51.100;6.814;2023-03-01T15:08:23;8.90;76.40
4374;DHT22;2201;51.100;6.814;2023-03-01T15:10:58;8.90;75.90
4374;DHT22;2201;51.100;6.814;2023-03-01T15:13:28;8.80;76.40
4374;DHT22;2201;51.100;6.814;2023-03-01T15:16:02;8.80;76.60
4374;DHT22;2201;51.100;6.814;2023-03-01T15:18:31;8.80;76.60
4374;DHT22;2201;51.100;6.814;2023-03-01T15:21:06;8.70;75.30
4374;DHT22;2201;51.100;6.814;2023-03-01T15:23:37;8.70;74.90
4374;DHT22;2201;51.100;6.814;2023-03-01T15:26:05;8.60;74.70
4374;DHT22;2201;51.100;6.814;2023-03-01T15:28:34;8.50;75.00
4374;DHT22;2201;51.100;6.814;2023-03-01T15:31:11;8.40;75.20
4374;DHT22;2201;51.100;6.814;2023-03-01T15:33:39;8.40;75.10
4374;DHT22;2201;51.100;6.814;2023-03-01T15:36:35;8.30;74.90
4374;DHT22;2201;51.100;6.814;2023-03-01T15:39:04;8.20;74.00
4374;DHT22;2201;51.100;6.814;2023-03-01T15:41:37;8.10;74.40
4374;DHT22;2201;51.100;6.814;2023-03-01T15:44:15;8.10;74.80
4374;DHT22;2201;51.100;6.814;2023-03-01T15:46:46;8.00;74.50
4374;DHT22;2201;51.100;6.814;2023-03-01T15:49:25;7.90;75.10
4374;DHT22;2201;51.100;6.814;2023-03-01T15:51:54;7.90;75.10
4374;DHT22;2201;51.100;6.814;2023-03-01T15:54:25;7.90;75.10
4374;DHT22;2201;51.100;6.814;2023-03-01T15:56:53;7.80;75.50
4374;DHT22;2201;51.100;6.814;2023-03-01T15:59:20;7.80;75.60
4374;DHT22;2201;51.100;6.814;2023-03-01T16:01:48;7.70;75.80
4374;DHT22;2201;51.100;6.814;2023-03-01T16:04:17;7.70;75.40
4374;DHT22;2201;51.100;6.814;2023-03-01T16:06:49;7.70;76.10
4374;DHT22;2201;51.100;6.814;2023-03-01T16:09:20;7.60;76.40
4374;DHT22;2201;51.100;6.814;2023-03-01T16:11:48;7.60;76.40
4374;DHT22;2201;51.100;6.814;2023-03-01T16:14:17;7.60;76.60
4374;DHT22;2201;51.100;6.814;2023-03-01T16:16:46;7.50;76.30
4374;DHT22;2201;51.100;6.814;2023-03-01T16:19:15;7.50;76.40
4374;DHT22;2201;51.100;6.814;2023-03-01T16:21:44;7.40;76.30
4374;DHT22;2201;51.100;6.814;2023-03-01T16:24:15;7.40;76.70
4374;DHT22;2201;51.100;6.814;2023-03-01T16:26:45;7.30;76.70
4374;DHT22;2201;51.100;6.814;2023-03-01T16:29:15;7.30;76.70
4374;DHT22;2201;51.100;6.814;2023-03-01T16:31:42;7.20;76.70
4374;DHT22;2201;51.100;6.814;2023-03-01T16:34:09;7.10;77.00
4374;DHT22;2201;51.100;6.814;2023-03-01T16:36:36;7.10;77.30
4374;DHT22;2201;51.100;6.814;2023-03-01T16:39:04;7.00;77.80